الصفحة الرئيسية
METAR-TAF:

METAR-TAF

مطار :

مطار طوكيو هانيدا الدولي

طوكيو-Haneda, اليابان

دائرة عرض: 35-33N, خط طول: 139-47E, ارتفاع: 5 متر

مراقبة الطقس الحالي

تاريخ ووقت الإصدار 49 دقيقة قبل الساعة 15:00UTC
ريح 15 عقدة من الشمال
درجة الحرارة 11°درجة مئوية
الرطوبة 54%
ضغط 1014 hPa
الرؤية 10 كم أو أكثر
غيوم قليلة على ارتفاع 5000 قدم
غيوم متفرقة

METAR: RJTT 061500Z 35015KT 9999 FEW050 SCT/// 11/02 Q1014 NOSIG RMK 1SC050 A2995

زمن: 00:49 (15:49 UTC)

توقعات

تاريخ ووقت الإصدار 4ساعات و 44 دقيقة قبل الساعة 11:05UTC
التوقعات صالحة من06 الساعة 12 UTC إلى 07 الساعة 18 UTC
ريح 16 عقدة من الشمال
الرؤية 10 كم أو أكثر
غيوم قليلة على ارتفاع 3000 قدم
أصبح
من 07 الساعة 00 UTC إلى 07 الساعة 03 UTC
ريح 12 عقدة من الجنوب
أصبح
من 07 الساعة 12 UTC إلى 07 الساعة 15 UTC
ريح 8 عقدة من الشمال

TAF: RJTT 061105Z 0612/0718 35016KT 9999 FEW030 BECMG 0700/0703 18012KT BECMG 0712/0715 36008KT

أرصاد الطقس والتوقعات من أكثر من 4000 مطار (تقارير الطقس للمطار METAR والتنبؤ بالطقس بالمطارTAF).

المحطات المتاحة هي النقط الصفراء والحمراء على الخريطة.

حرك المؤشر فوق النقطة لمعرفة اسم المحطة.

ثم انقر لمعرفة أرصاد وتوقعات الطقس.

لتغيير الخارطة: اضغط على الأزرار الخضراء مع رمز الصليب الأسود للتكبير. على الزر الأخضر مع شرطة للتصغير، أو على الأسهم الخضراء للخرائط المجاورة.


METAR-TAF: